sensor_id;sensor_type;location;lat;lon;timestamp;P1;durP1;ratioP1;P2;durP2;ratioP2
55069;SDS011;40967;52.070;8.596;2023-05-19T00:00:01;0.73;;;0.40;;
55069;SDS011;40967;52.070;8.596;2023-05-19T00:02:28;1.13;;;0.38;;
55069;SDS011;40967;52.070;8.596;2023-05-19T00:04:58;1.38;;;0.50;;
55069;SDS011;40967;52.070;8.596;2023-05-19T00:07:26;1.60;;;0.40;;
55069;SDS011;40967;52.070;8.596;2023-05-19T00:09:55;0.50;;;0.40;;
55069;SDS011;40967;52.070;8.596;2023-05-19T00:12:21;0.67;;;0.40;;
55069;SDS011;40967;52.070;8.596;2023-05-19T00:14:47;1.30;;;0.50;;
55069;SDS011;40967;52.070;8.596;2023-05-19T00:17:13;0.98;;;0.40;;
55069;SDS011;40967;52.070;8.596;2023-05-19T00:19:41;1.15;;;0.50;;
55069;SDS011;40967;52.070;8.596;2023-05-19T00:22:09;0.95;;;0.55;;
55069;SDS011;40967;52.070;8.596;2023-05-19T00:24:34;1.15;;;0.60;;
55069;SDS011;40967;52.070;8.596;2023-05-19T00:27:00;1.67;;;0.60;;
55069;SDS011;40967;52.070;8.596;2023-05-19T00:29:25;0.90;;;0.50;;
55069;SDS011;40967;52.070;8.596;2023-05-19T00:31:50;1.23;;;0.50;;
55069;SDS011;40967;52.070;8.596;2023-05-19T00:34:16;0.90;;;0.50;;
55069;SDS011;40967;52.070;8.596;2023-05-19T00:36:41;1.37;;;0.50;;
55069;SDS011;40967;52.070;8.596;2023-05-19T00:39:07;1.10;;;0.50;;
55069;SDS011;40967;52.070;8.596;2023-05-19T00:41:32;0.70;;;0.40;;
55069;SDS011;40967;52.070;8.596;2023-05-19T00:43:58;1.50;;;0.70;;
55069;SDS011;40967;52.070;8.596;2023-05-19T00:46:23;0.63;;;0.40;;
55069;SDS011;40967;52.070;8.596;2023-05-19T00:48:49;1.20;;;0.50;;
55069;SDS011;40967;52.070;8.596;2023-05-19T00:51:14;1.60;;;0.70;;
55069;SDS011;40967;52.070;8.596;2023-05-19T00:53:41;1.17;;;0.50;;
55069;SDS011;40967;52.070;8.596;2023-05-19T00:56:12;1.42;;;0.57;;
55069;SDS011;40967;52.070;8.596;2023-05-19T00:58:38;1.02;;;0.50;;
55069;SDS011;40967;52.070;8.596;2023-05-19T01:01:03;1.27;;;0.60;;
55069;SDS011;40967;52.070;8.596;2023-05-19T01:03:31;1.35;;;0.63;;
55069;SDS011;40967;52.070;8.596;2023-05-19T01:05:59;1.08;;;0.60;;
55069;SDS011;40967;52.070;8.596;2023-05-19T01:08:35;1.05;;;0.55;;
55069;SDS011;40967;52.070;8.596;2023-05-19T01:11:02;0.63;;;0.40;;
55069;SDS011;40967;52.070;8.596;2023-05-19T01:13:31;1.40;;;0.50;;
55069;SDS011;40967;52.070;8.596;2023-05-19T01:18:36;0.82;;;0.50;;
55069;SDS011;40967;52.070;8.596;2023-05-19T01:26:52;1.05;;;0.57;;
55069;SDS011;40967;52.070;8.596;2023-05-19T01:32:31;0.82;;;0.50;;
55069;SDS011;40967;52.070;8.596;2023-05-19T01:34:58;0.80;;;0.40;;
55069;SDS011;40967;52.070;8.596;2023-05-19T01:37:24;1.40;;;0.60;;
55069;SDS011;40967;52.070;8.596;2023-05-19T01:39:51;0.65;;;0.40;;
55069;SDS011;40967;52.070;8.596;2023-05-19T01:42:17;1.13;;;0.55;;
55069;SDS011;40967;52.070;8.596;2023-05-19T01:44:44;0.88;;;0.40;;
55069;SDS011;40967;52.070;8.596;2023-05-19T01:47:10;1.63;;;0.60;;
55069;SDS011;40967;52.070;8.596;2023-05-19T01:49:36;1.17;;;0.60;;
55069;SDS011;40967;52.070;8.596;2023-05-19T01:52:02;1.98;;;0.70;;
55069;SDS011;40967;52.070;8.596;2023-05-19T01:54:27;1.20;;;0.50;;
55069;SDS011;40967;52.070;8.596;2023-05-19T01:57:03;1.47;;;0.80;;
55069;SDS011;40967;52.070;8.596;2023-05-19T01:59:41;1.58;;;0.68;;
55069;SDS011;40967;52.070;8.596;2023-05-19T02:02:25;1.15;;;0.47;;
55069;SDS011;40967;52.070;8.596;2023-05-19T02:05:21;0.90;;;0.50;;
55069;SDS011;40967;52.070;8.596;2023-05-19T02:08:17;1.05;;;0.50;;
55069;SDS011;40967;52.070;8.596;2023-05-19T02:10:46;1.63;;;0.60;;
55069;SDS011;40967;52.070;8.596;2023-05-19T02:13:17;0.83;;;0.57;;
55069;SDS011;40967;52.070;8.596;2023-05-19T02:15:45;1.38;;;0.57;;
55069;SDS011;40967;52.070;8.596;2023-05-19T02:18:12;1.80;;;0.75;;
55069;SDS011;40967;52.070;8.596;2023-05-19T02:20:42;1.23;;;0.60;;
55069;SDS011;40967;52.070;8.596;2023-05-19T02:23:07;0.95;;;0.50;;
55069;SDS011;40967;52.070;8.596;2023-05-19T02:25:32;1.40;;;0.60;;
55069;SDS011;40967;52.070;8.596;2023-05-19T02:27:58;1.27;;;0.60;;
55069;SDS011;40967;52.070;8.596;2023-05-19T02:30:24;0.90;;;0.60;;
55069;SDS011;40967;52.070;8.596;2023-05-19T02:32:49;1.23;;;0.60;;
55069;SDS011;40967;52.070;8.596;2023-05-19T02:35:15;1.57;;;0.60;;
55069;SDS011;40967;52.070;8.596;2023-05-19T02:37:40;1.20;;;0.67;;
55069;SDS011;40967;52.070;8.596;2023-05-19T02:40:06;1.00;;;0.52;;
55069;SDS011;40967;52.070;8.596;2023-05-19T02:42:32;1.30;;;0.60;;
55069;SDS011;40967;52.070;8.596;2023-05-19T02:44:58;1.43;;;0.70;;
55069;SDS011;40967;52.070;8.596;2023-05-19T02:47:24;1.77;;;0.80;;
55069;SDS011;40967;52.070;8.596;2023-05-19T02:49:49;1.00;;;0.50;;
55069;SDS011;40967;52.070;8.596;2023-05-19T02:52:15;1.30;;;0.70;;
55069;SDS011;40967;52.070;8.596;2023-05-19T02:54:40;1.37;;;0.60;;
55069;SDS011;40967;52.070;8.596;2023-05-19T02:57:06;1.50;;;0.70;;
55069;SDS011;40967;52.070;8.596;2023-05-19T02:59:31;1.20;;;0.70;;
55069;SDS011;40967;52.070;8.596;2023-05-19T03:02:00;1.63;;;0.80;;
55069;SDS011;40967;52.070;8.596;2023-05-19T03:04:27;1.20;;;0.60;;
55069;SDS011;40967;52.070;8.596;2023-05-19T03:06:53;1.10;;;0.60;;
55069;SDS011;40967;52.070;8.596;2023-05-19T03:09:22;1.40;;;0.73;;
55069;SDS011;40967;52.070;8.596;2023-05-19T03:11:47;1.85;;;0.60;;
55069;SDS011;40967;52.070;8.596;2023-05-19T03:14:13;1.17;;;0.68;;
55069;SDS011;40967;52.070;8.596;2023-05-19T03:16:39;1.50;;;0.70;;
55069;SDS011;40967;52.070;8.596;2023-05-19T03:19:07;1.30;;;0.70;;
55069;SDS011;40967;52.070;8.596;2023-05-19T03:21:33;1.88;;;0.75;;
55069;SDS011;40967;52.070;8.596;2023-05-19T03:24:02;1.40;;;0.63;;
55069;SDS011;40967;52.070;8.596;2023-05-19T03:26:28;1.75;;;0.82;;
55069;SDS011;40967;52.070;8.596;2023-05-19T03:28:53;1.27;;;0.60;;
55069;SDS011;40967;52.070;8.596;2023-05-19T03:31:19;1.45;;;0.70;;
55069;SDS011;40967;52.070;8.596;2023-05-19T03:33:44;1.70;;;0.80;;
55069;SDS011;40967;52.070;8.596;2023-05-19T03:36:10;1.90;;;0.80;;
55069;SDS011;40967;52.070;8.596;2023-05-19T03:38:36;1.35;;;0.80;;
55069;SDS011;40967;52.070;8.596;2023-05-19T03:41:02;1.50;;;0.70;;
55069;SDS011;40967;52.070;8.596;2023-05-19T03:43:27;1.80;;;0.90;;
55069;SDS011;40967;52.070;8.596;2023-05-19T03:45:53;2.07;;;0.80;;
55069;SDS011;40967;52.070;8.596;2023-05-19T03:48:18;1.27;;;0.80;;
55069;SDS011;40967;52.070;8.596;2023-05-19T03:50:44;2.08;;;1.00;;
55069;SDS011;40967;52.070;8.596;2023-05-19T03:53:09;1.20;;;0.70;;
55069;SDS011;40967;52.070;8.596;2023-05-19T03:55:35;1.60;;;0.90;;
55069;SDS011;40967;52.070;8.596;2023-05-19T03:58:01;2.10;;;0.88;;
55069;SDS011;40967;52.070;8.596;2023-05-19T04:00:27;1.67;;;0.80;;
55069;SDS011;40967;52.070;8.596;2023-05-19T04:02:52;2.10;;;0.90;;
55069;SDS011;40967;52.070;8.596;2023-05-19T04:05:18;2.83;;;1.20;;
55069;SDS011;40967;52.070;8.596;2023-05-19T04:07:43;2.67;;;1.23;;
55069;SDS011;40967;52.070;8.596;2023-05-19T04:10:10;3.22;;;1.40;;
55069;SDS011;40967;52.070;8.596;2023-05-19T04:12:36;3.13;;;1.50;;
55069;SDS011;40967;52.070;8.596;2023-05-19T04:15:01;2.58;;;1.20;;
55069;SDS011;40967;52.070;8.596;2023-05-19T04:17:27;2.57;;;1.33;;
55069;SDS011;40967;52.070;8.596;2023-05-19T04:19:53;3.50;;;1.60;;
55069;SDS011;40967;52.070;8.596;2023-05-19T04:22:18;3.73;;;1.83;;
55069;SDS011;40967;52.070;8.596;2023-05-19T04:24:44;3.30;;;1.70;;
55069;SDS011;40967;52.070;8.596;2023-05-19T04:27:10;3.10;;;1.63;;
55069;SDS011;40967;52.070;8.596;2023-05-19T04:29:36;3.40;;;1.50;;
55069;SDS011;40967;52.070;8.596;2023-05-19T04:32:03;2.45;;;1.33;;
55069;SDS011;40967;52.070;8.596;2023-05-19T04:34:32;2.83;;;1.30;;
55069;SDS011;40967;52.070;8.596;2023-05-19T04:36:59;3.83;;;1.67;;
55069;SDS011;40967;52.070;8.596;2023-05-19T04:39:24;3.20;;;1.63;;
55069;SDS011;40967;52.070;8.596;2023-05-19T04:41:50;3.80;;;1.67;;
55069;SDS011;40967;52.070;8.596;2023-05-19T04:44:15;3.30;;;1.60;;
55069;SDS011;40967;52.070;8.596;2023-05-19T04:46:42;3.55;;;1.63;;
55069;SDS011;40967;52.070;8.596;2023-05-19T04:49:09;2.97;;;1.35;;
55069;SDS011;40967;52.070;8.596;2023-05-19T04:51:36;2.75;;;1.40;;
55069;SDS011;40967;52.070;8.596;2023-05-19T04:54:05;2.92;;;1.50;;
55069;SDS011;40967;52.070;8.596;2023-05-19T04:56:31;2.58;;;1.45;;
55069;SDS011;40967;52.070;8.596;2023-05-19T04:58:57;2.08;;;1.13;;
55069;SDS011;40967;52.070;8.596;2023-05-19T05:01:22;3.17;;;1.30;;
55069;SDS011;40967;52.070;8.596;2023-05-19T05:03:50;2.42;;;1.30;;
55069;SDS011;40967;52.070;8.596;2023-05-19T05:06:19;2.80;;;1.40;;
55069;SDS011;40967;52.070;8.596;2023-05-19T05:08:47;2.28;;;1.23;;
55069;SDS011;40967;52.070;8.596;2023-05-19T05:11:13;2.03;;;0.98;;
55069;SDS011;40967;52.070;8.596;2023-05-19T05:13:39;1.80;;;1.00;;
55069;SDS011;40967;52.070;8.596;2023-05-19T05:16:05;2.22;;;1.00;;
55069;SDS011;40967;52.070;8.596;2023-05-19T05:18:32;2.15;;;1.02;;
55069;SDS011;40967;52.070;8.596;2023-05-19T05:20:58;3.25;;;1.50;;
55069;SDS011;40967;52.070;8.596;2023-05-19T05:23:24;1.98;;;1.20;;
55069;SDS011;40967;52.070;8.596;2023-05-19T05:25:50;2.27;;;1.00;;
55069;SDS011;40967;52.070;8.596;2023-05-19T05:28:16;2.53;;;1.30;;
55069;SDS011;40967;52.070;8.596;2023-05-19T05:30:41;2.57;;;1.30;;
55069;SDS011;40967;52.070;8.596;2023-05-19T05:33:07;2.42;;;1.15;;
55069;SDS011;40967;52.070;8.596;2023-05-19T05:35:33;2.65;;;1.30;;
55069;SDS011;40967;52.070;8.596;2023-05-19T05:37:58;2.80;;;1.30;;
55069;SDS011;40967;52.070;8.596;2023-05-19T05:40:25;2.60;;;1.40;;
55069;SDS011;40967;52.070;8.596;2023-05-19T05:42:51;2.20;;;1.20;;
55069;SDS011;40967;52.070;8.596;2023-05-19T05:45:19;2.55;;;1.15;;
55069;SDS011;40967;52.070;8.596;2023-05-19T05:47:45;3.00;;;1.48;;
55069;SDS011;40967;52.070;8.596;2023-05-19T05:50:11;2.80;;;1.20;;
55069;SDS011;40967;52.070;8.596;2023-05-19T05:52:37;2.90;;;1.40;;
55069;SDS011;40967;52.070;8.596;2023-05-19T05:55:05;2.00;;;1.00;;
55069;SDS011;40967;52.070;8.596;2023-05-19T05:57:31;2.08;;;1.13;;
55069;SDS011;40967;52.070;8.596;2023-05-19T05:59:59;2.15;;;1.08;;
55069;SDS011;40967;52.070;8.596;2023-05-19T06:02:25;1.52;;;1.00;;
55069;SDS011;40967;52.070;8.596;2023-05-19T06:04:51;2.20;;;1.20;;
55069;SDS011;40967;52.070;8.596;2023-05-19T06:07:18;2.47;;;1.13;;
55069;SDS011;40967;52.070;8.596;2023-05-19T06:09:43;2.60;;;1.10;;
55069;SDS011;40967;52.070;8.596;2023-05-19T06:12:09;2.17;;;1.03;;
55069;SDS011;40967;52.070;8.596;2023-05-19T06:14:35;2.05;;;1.00;;
55069;SDS011;40967;52.070;8.596;2023-05-19T06:17:00;2.00;;;1.10;;
55069;SDS011;40967;52.070;8.596;2023-05-19T06:19:26;2.65;;;1.30;;
55069;SDS011;40967;52.070;8.596;2023-05-19T06:21:51;1.83;;;0.97;;
55069;SDS011;40967;52.070;8.596;2023-05-19T06:24:17;1.83;;;0.90;;
55069;SDS011;40967;52.070;8.596;2023-05-19T06:26:42;2.03;;;0.90;;
55069;SDS011;40967;52.070;8.596;2023-05-19T06:29:07;2.00;;;1.00;;
55069;SDS011;40967;52.070;8.596;2023-05-19T06:31:33;1.73;;;0.88;;
55069;SDS011;40967;52.070;8.596;2023-05-19T06:33:58;1.88;;;0.90;;
55069;SDS011;40967;52.070;8.596;2023-05-19T06:36:24;2.10;;;0.90;;
55069;SDS011;40967;52.070;8.596;2023-05-19T06:38:49;1.67;;;0.80;;
55069;SDS011;40967;52.070;8.596;2023-05-19T06:41:15;0.90;;;0.60;;
55069;SDS011;40967;52.070;8.596;2023-05-19T06:43:41;1.85;;;0.70;;
55069;SDS011;40967;52.070;8.596;2023-05-19T06:46:06;1.92;;;0.80;;
55069;SDS011;40967;52.070;8.596;2023-05-19T06:48:32;1.37;;;0.60;;
55069;SDS011;40967;52.070;8.596;2023-05-19T06:50:57;1.33;;;0.60;;
55069;SDS011;40967;52.070;8.596;2023-05-19T06:53:23;1.33;;;0.60;;
55069;SDS011;40967;52.070;8.596;2023-05-19T06:55:48;0.85;;;0.60;;
55069;SDS011;40967;52.070;8.596;2023-05-19T06:58:16;1.63;;;0.73;;
55069;SDS011;40967;52.070;8.596;2023-05-19T07:00:42;2.70;;;0.80;;
55069;SDS011;40967;52.070;8.596;2023-05-19T07:03:08;2.00;;;0.63;;
55069;SDS011;40967;52.070;8.596;2023-05-19T07:05:33;1.50;;;0.77;;
55069;SDS011;40967;52.070;8.596;2023-05-19T07:07:59;1.27;;;0.55;;
55069;SDS011;40967;52.070;8.596;2023-05-19T07:10:25;1.55;;;0.68;;
55069;SDS011;40967;52.070;8.596;2023-05-19T07:12:51;1.87;;;0.70;;
55069;SDS011;40967;52.070;8.596;2023-05-19T07:15:16;1.60;;;0.50;;
55069;SDS011;40967;52.070;8.596;2023-05-19T07:17:42;1.17;;;0.50;;
55069;SDS011;40967;52.070;8.596;2023-05-19T07:20:07;1.88;;;0.70;;
55069;SDS011;40967;52.070;8.596;2023-05-19T07:22:34;2.13;;;0.75;;
55069;SDS011;40967;52.070;8.596;2023-05-19T07:25:00;2.00;;;0.70;;
55069;SDS011;40967;52.070;8.596;2023-05-19T07:27:25;2.43;;;0.90;;
55069;SDS011;40967;52.070;8.596;2023-05-19T07:29:51;1.95;;;0.80;;
55069;SDS011;40967;52.070;8.596;2023-05-19T07:32:16;2.50;;;0.87;;
55069;SDS011;40967;52.070;8.596;2023-05-19T07:34:41;3.90;;;1.07;;
55069;SDS011;40967;52.070;8.596;2023-05-19T07:37:07;2.67;;;0.83;;
55069;SDS011;40967;52.070;8.596;2023-05-19T07:39:33;1.23;;;0.60;;
55069;SDS011;40967;52.070;8.596;2023-05-19T07:41:59;1.00;;;0.50;;
55069;SDS011;40967;52.070;8.596;2023-05-19T07:44:25;1.77;;;0.60;;
55069;SDS011;40967;52.070;8.596;2023-05-19T07:46:51;2.53;;;0.90;;
55069;SDS011;40967;52.070;8.596;2023-05-19T07:49:17;2.13;;;0.80;;
55069;SDS011;40967;52.070;8.596;2023-05-19T07:51:42;1.70;;;0.70;;
55069;SDS011;40967;52.070;8.596;2023-05-19T07:54:08;1.20;;;0.50;;
55069;SDS011;40967;52.070;8.596;2023-05-19T07:56:33;1.60;;;0.60;;
55069;SDS011;40967;52.070;8.596;2023-05-19T07:58:59;1.60;;;0.70;;
55069;SDS011;40967;52.070;8.596;2023-05-19T08:01:24;2.23;;;0.80;;
55069;SDS011;40967;52.070;8.596;2023-05-19T08:03:50;2.22;;;0.82;;
55069;SDS011;40967;52.070;8.596;2023-05-19T08:06:15;1.53;;;0.60;;
55069;SDS011;40967;52.070;8.596;2023-05-19T08:08:41;1.10;;;0.60;;
55069;SDS011;40967;52.070;8.596;2023-05-19T08:11:06;1.20;;;0.40;;
55069;SDS011;40967;52.070;8.596;2023-05-19T08:13:32;1.00;;;0.50;;
55069;SDS011;40967;52.070;8.596;2023-05-19T08:15:58;1.33;;;0.60;;
55069;SDS011;40967;52.070;8.596;2023-05-19T08:18:24;1.88;;;0.70;;
55069;SDS011;40967;52.070;8.596;2023-05-19T08:20:50;1.58;;;0.70;;
55069;SDS011;40967;52.070;8.596;2023-05-19T08:23:16;1.30;;;0.63;;
55069;SDS011;40967;52.070;8.596;2023-05-19T08:25:41;1.30;;;0.50;;
55069;SDS011;40967;52.070;8.596;2023-05-19T08:28:07;1.92;;;0.80;;
55069;SDS011;40967;52.070;8.596;2023-05-19T08:30:33;1.30;;;0.60;;
55069;SDS011;40967;52.070;8.596;2023-05-19T08:32:58;1.57;;;0.43;;
55069;SDS011;40967;52.070;8.596;2023-05-19T08:35:24;1.97;;;0.77;;
55069;SDS011;40967;52.070;8.596;2023-05-19T08:37:49;2.75;;;0.70;;
55069;SDS011;40967;52.070;8.596;2023-05-19T08:40:15;1.17;;;0.52;;
55069;SDS011;40967;52.070;8.596;2023-05-19T08:42:42;0.90;;;0.40;;
55069;SDS011;40967;52.070;8.596;2023-05-19T08:45:09;1.58;;;0.60;;
55069;SDS011;40967;52.070;8.596;2023-05-19T08:47:35;3.10;;;0.70;;
55069;SDS011;40967;52.070;8.596;2023-05-19T08:50:03;2.10;;;0.60;;
55069;SDS011;40967;52.070;8.596;2023-05-19T08:58:01;1.60;;;0.60;;
55069;SDS011;40967;52.070;8.596;2023-05-19T09:00:31;0.30;;;0.30;;
55069;SDS011;40967;52.070;8.596;2023-05-19T09:02:57;1.80;;;0.40;;
55069;SDS011;40967;52.070;8.596;2023-05-19T09:05:24;1.52;;;0.50;;
55069;SDS011;40967;52.070;8.596;2023-05-19T09:07:50;1.07;;;0.50;;
55069;SDS011;40967;52.070;8.596;2023-05-19T09:10:15;0.63;;;0.40;;
55069;SDS011;40967;52.070;8.596;2023-05-19T09:12:44;0.90;;;0.43;;
55069;SDS011;40967;52.070;8.596;2023-05-19T09:15:15;1.27;;;0.40;;
55069;SDS011;40967;52.070;8.596;2023-05-19T09:17:44;1.48;;;0.60;;
55069;SDS011;40967;52.070;8.596;2023-05-19T09:20:09;1.73;;;0.50;;
55069;SDS011;40967;52.070;8.596;2023-05-19T09:22:44;0.73;;;0.33;;
55069;SDS011;40967;52.070;8.596;2023-05-19T09:25:44;0.77;;;0.40;;
55069;SDS011;40967;52.070;8.596;2023-05-19T09:28:10;1.70;;;0.50;;
55069;SDS011;40967;52.070;8.596;2023-05-19T09:30:36;1.03;;;0.30;;
55069;SDS011;40967;52.070;8.596;2023-05-19T09:33:04;1.57;;;0.40;;
55069;SDS011;40967;52.070;8.596;2023-05-19T09:35:33;0.75;;;0.45;;
55069;SDS011;40967;52.070;8.596;2023-05-19T09:37:59;0.90;;;0.40;;
55069;SDS011;40967;52.070;8.596;2023-05-19T09:40:26;0.97;;;0.43;;
55069;SDS011;40967;52.070;8.596;2023-05-19T09:42:52;0.95;;;0.40;;
55069;SDS011;40967;52.070;8.596;2023-05-19T09:45:18;1.60;;;0.40;;
55069;SDS011;40967;52.070;8.596;2023-05-19T09:47:44;2.60;;;0.60;;
55069;SDS011;40967;52.070;8.596;2023-05-19T09:50:10;2.60;;;0.70;;
55069;SDS011;40967;52.070;8.596;2023-05-19T09:55:02;1.17;;;0.50;;
55069;SDS011;40967;52.070;8.596;2023-05-19T09:57:33;0.73;;;0.32;;
55069;SDS011;40967;52.070;8.596;2023-05-19T10:00:05;1.33;;;0.60;;
55069;SDS011;40967;52.070;8.596;2023-05-19T10:02:37;0.98;;;0.40;;
55069;SDS011;40967;52.070;8.596;2023-05-19T10:05:06;1.10;;;0.50;;
55069;SDS011;40967;52.070;8.596;2023-05-19T10:07:34;1.80;;;0.70;;
55069;SDS011;40967;52.070;8.596;2023-05-19T10:10:00;2.20;;;0.80;;
55069;SDS011;40967;52.070;8.596;2023-05-19T10:12:26;2.15;;;0.70;;
55069;SDS011;40967;52.070;8.596;2023-05-19T10:14:52;1.90;;;0.60;;
55069;SDS011;40967;52.070;8.596;2023-05-19T10:17:18;2.28;;;0.70;;
55069;SDS011;40967;52.070;8.596;2023-05-19T10:19:44;1.50;;;0.60;;
55069;SDS011;40967;52.070;8.596;2023-05-19T10:22:11;2.05;;;0.70;;
55069;SDS011;40967;52.070;8.596;2023-05-19T10:24:40;2.77;;;0.60;;
55069;SDS011;40967;52.070;8.596;2023-05-19T10:27:07;2.20;;;0.80;;
55069;SDS011;40967;52.070;8.596;2023-05-19T10:29:40;1.77;;;0.70;;
55069;SDS011;40967;52.070;8.596;2023-05-19T10:32:10;1.83;;;0.80;;
55069;SDS011;40967;52.070;8.596;2023-05-19T10:40:03;0.87;;;0.47;;
55069;SDS011;40967;52.070;8.596;2023-05-19T10:42:39;2.05;;;0.70;;
55069;SDS011;40967;52.070;8.596;2023-05-19T10:45:21;2.17;;;0.80;;
55069;SDS011;40967;52.070;8.596;2023-05-19T10:47:50;1.52;;;0.60;;
55069;SDS011;40967;52.070;8.596;2023-05-19T10:50:15;1.38;;;0.60;;
55069;SDS011;40967;52.070;8.596;2023-05-19T10:52:44;1.80;;;0.70;;
55069;SDS011;40967;52.070;8.596;2023-05-19T10:55:17;2.25;;;0.88;;
55069;SDS011;40967;52.070;8.596;2023-05-19T10:58:38;2.03;;;0.60;;
55069;SDS011;40967;52.070;8.596;2023-05-19T11:01:21;1.47;;;0.50;;
55069;SDS011;40967;52.070;8.596;2023-05-19T11:03:56;2.30;;;0.70;;
55069;SDS011;40967;52.070;8.596;2023-05-19T11:06:25;2.08;;;0.68;;
55069;SDS011;40967;52.070;8.596;2023-05-19T11:08:59;2.03;;;0.52;;
55069;SDS011;40967;52.070;8.596;2023-05-19T11:11:25;1.55;;;0.60;;
55069;SDS011;40967;52.070;8.596;2023-05-19T11:13:52;2.45;;;0.90;;
55069;SDS011;40967;52.070;8.596;2023-05-19T11:16:28;2.28;;;0.90;;
55069;SDS011;40967;52.070;8.596;2023-05-19T11:18:59;2.08;;;0.90;;
55069;SDS011;40967;52.070;8.596;2023-05-19T11:21:46;2.28;;;0.80;;
55069;SDS011;40967;52.070;8.596;2023-05-19T11:29:43;0.75;;;0.40;;
55069;SDS011;40967;52.070;8.596;2023-05-19T11:32:09;1.45;;;0.50;;
55069;SDS011;40967;52.070;8.596;2023-05-19T11:34:35;1.27;;;0.52;;
55069;SDS011;40967;52.070;8.596;2023-05-19T11:37:02;1.92;;;0.63;;
55069;SDS011;40967;52.070;8.596;2023-05-19T11:39:28;1.63;;;0.70;;
55069;SDS011;40967;52.070;8.596;2023-05-19T11:41:55;1.88;;;0.85;;
55069;SDS011;40967;52.070;8.596;2023-05-19T11:44:21;1.30;;;0.63;;
55069;SDS011;40967;52.070;8.596;2023-05-19T11:46:46;1.60;;;0.80;;
55069;SDS011;40967;52.070;8.596;2023-05-19T11:49:12;1.87;;;0.63;;
55069;SDS011;40967;52.070;8.596;2023-05-19T11:51:38;1.10;;;0.60;;
55069;SDS011;40967;52.070;8.596;2023-05-19T11:54:08;1.50;;;0.80;;
55069;SDS011;40967;52.070;8.596;2023-05-19T11:56:38;1.33;;;0.60;;
55069;SDS011;40967;52.070;8.596;2023-05-19T11:59:04;1.60;;;0.60;;
55069;SDS011;40967;52.070;8.596;2023-05-19T12:01:30;2.08;;;0.82;;
55069;SDS011;40967;52.070;8.596;2023-05-19T12:03:56;1.38;;;0.65;;
55069;SDS011;40967;52.070;8.596;2023-05-19T12:06:21;1.03;;;0.47;;
55069;SDS011;40967;52.070;8.596;2023-05-19T12:08:49;1.80;;;0.73;;
55069;SDS011;40967;52.070;8.596;2023-05-19T12:11:15;1.65;;;0.70;;
55069;SDS011;40967;52.070;8.596;2023-05-19T12:13:41;0.93;;;0.53;;
55069;SDS011;40967;52.070;8.596;2023-05-19T12:16:07;1.77;;;0.70;;
55069;SDS011;40967;52.070;8.596;2023-05-19T12:18:36;1.23;;;0.55;;
55069;SDS011;40967;52.070;8.596;2023-05-19T12:21:02;2.00;;;0.90;;
55069;SDS011;40967;52.070;8.596;2023-05-19T12:23:29;1.35;;;0.60;;
55069;SDS011;40967;52.070;8.596;2023-05-19T12:25:58;1.33;;;0.60;;
55069;SDS011;40967;52.070;8.596;2023-05-19T12:28:24;1.75;;;0.80;;
55069;SDS011;40967;52.070;8.596;2023-05-19T12:30:50;1.80;;;0.70;;
55069;SDS011;40967;52.070;8.596;2023-05-19T12:33:19;1.95;;;0.80;;
55069;SDS011;40967;52.070;8.596;2023-05-19T12:35:47;1.38;;;0.60;;
55069;SDS011;40967;52.070;8.596;2023-05-19T12:38:14;1.40;;;0.60;;
55069;SDS011;40967;52.070;8.596;2023-05-19T12:40:40;0.95;;;0.60;;
55069;SDS011;40967;52.070;8.596;2023-05-19T12:43:06;1.55;;;0.60;;
55069;SDS011;40967;52.070;8.596;2023-05-19T12:45:36;1.50;;;0.60;;
55069;SDS011;40967;52.070;8.596;2023-05-19T12:48:13;1.13;;;0.52;;
55069;SDS011;40967;52.070;8.596;2023-05-19T12:50:40;1.55;;;0.70;;
55069;SDS011;40967;52.070;8.596;2023-05-19T12:53:08;2.83;;;1.10;;
55069;SDS011;40967;52.070;8.596;2023-05-19T12:55:37;2.00;;;0.80;;
55069;SDS011;40967;52.070;8.596;2023-05-19T12:58:05;0.97;;;0.50;;
55069;SDS011;40967;52.070;8.596;2023-05-19T13:00:31;1.77;;;0.50;;
55069;SDS011;40967;52.070;8.596;2023-05-19T13:03:03;1.73;;;0.60;;
55069;SDS011;40967;52.070;8.596;2023-05-19T13:05:35;2.33;;;0.98;;
55069;SDS011;40967;52.070;8.596;2023-05-19T13:10:32;1.83;;;0.77;;
55069;SDS011;40967;52.070;8.596;2023-05-19T13:12:58;2.00;;;0.63;;
55069;SDS011;40967;52.070;8.596;2023-05-19T13:15:25;1.23;;;0.60;;
55069;SDS011;40967;52.070;8.596;2023-05-19T13:17:52;2.30;;;0.80;;
55069;SDS011;40967;52.070;8.596;2023-05-19T13:20:21;2.03;;;0.80;;
55069;SDS011;40967;52.070;8.596;2023-05-19T13:22:47;1.58;;;0.60;;
55069;SDS011;40967;52.070;8.596;2023-05-19T13:25:14;2.67;;;0.70;;
55069;SDS011;40967;52.070;8.596;2023-05-19T13:27:40;1.73;;;0.70;;
55069;SDS011;40967;52.070;8.596;2023-05-19T13:30:05;2.70;;;0.90;;
55069;SDS011;40967;52.070;8.596;2023-05-19T13:32:31;1.25;;;0.60;;
55069;SDS011;40967;52.070;8.596;2023-05-19T13:34:57;1.50;;;0.70;;
55069;SDS011;40967;52.070;8.596;2023-05-19T13:37:23;1.35;;;0.70;;
55069;SDS011;40967;52.070;8.596;2023-05-19T13:39:48;1.50;;;0.70;;
55069;SDS011;40967;52.070;8.596;2023-05-19T13:42:14;1.13;;;0.60;;
55069;SDS011;40967;52.070;8.596;2023-05-19T13:44:41;1.00;;;0.55;;
55069;SDS011;40967;52.070;8.596;2023-05-19T13:47:07;1.30;;;0.70;;
55069;SDS011;40967;52.070;8.596;2023-05-19T13:49:32;1.03;;;0.60;;
55069;SDS011;40967;52.070;8.596;2023-05-19T13:51:57;1.33;;;0.70;;
55069;SDS011;40967;52.070;8.596;2023-05-19T13:54:25;2.83;;;0.85;;
55069;SDS011;40967;52.070;8.596;2023-05-19T13:56:51;2.05;;;0.90;;
55069;SDS011;40967;52.070;8.596;2023-05-19T13:59:17;1.87;;;0.80;;
55069;SDS011;40967;52.070;8.596;2023-05-19T14:01:42;0.93;;;0.53;;
55069;SDS011;40967;52.070;8.596;2023-05-19T14:04:09;1.20;;;0.63;;
55069;SDS011;40967;52.070;8.596;2023-05-19T14:06:35;1.07;;;0.60;;
55069;SDS011;40967;52.070;8.596;2023-05-19T14:09:04;0.80;;;0.40;;
55069;SDS011;40967;52.070;8.596;2023-05-19T14:11:33;1.08;;;0.60;;
55069;SDS011;40967;52.070;8.596;2023-05-19T14:13:58;1.40;;;0.57;;
55069;SDS011;40967;52.070;8.596;2023-05-19T14:16:24;0.97;;;0.53;;
55069;SDS011;40967;52.070;8.596;2023-05-19T14:18:52;1.75;;;0.70;;
55069;SDS011;40967;52.070;8.596;2023-05-19T14:21:18;0.98;;;0.60;;
55069;SDS011;40967;52.070;8.596;2023-05-19T14:23:43;1.50;;;0.60;;
55069;SDS011;40967;52.070;8.596;2023-05-19T14:26:09;0.95;;;0.40;;
55069;SDS011;40967;52.070;8.596;2023-05-19T14:28:34;1.38;;;0.60;;
55069;SDS011;40967;52.070;8.596;2023-05-19T14:31:00;0.70;;;0.40;;
55069;SDS011;40967;52.070;8.596;2023-05-19T14:33:25;1.80;;;0.60;;
55069;SDS011;40967;52.070;8.596;2023-05-19T14:35:51;1.43;;;0.67;;
55069;SDS011;40967;52.070;8.596;2023-05-19T14:38:17;1.57;;;0.70;;
55069;SDS011;40967;52.070;8.596;2023-05-19T14:40:43;1.50;;;0.70;;
55069;SDS011;40967;52.070;8.596;2023-05-19T14:43:09;1.02;;;0.60;;
55069;SDS011;40967;52.070;8.596;2023-05-19T14:45:35;0.80;;;0.60;;
55069;SDS011;40967;52.070;8.596;2023-05-19T14:48:02;1.20;;;0.47;;
55069;SDS011;40967;52.070;8.596;2023-05-19T14:50:27;1.30;;;0.63;;
55069;SDS011;40967;52.070;8.596;2023-05-19T14:52:53;1.23;;;0.60;;
55069;SDS011;40967;52.070;8.596;2023-05-19T14:55:18;0.90;;;0.50;;
55069;SDS011;40967;52.070;8.596;2023-05-19T14:57:44;0.93;;;0.50;;
55069;SDS011;40967;52.070;8.596;2023-05-19T15:00:10;1.80;;;0.70;;
55069;SDS011;40967;52.070;8.596;2023-05-19T15:02:36;0.90;;;0.57;;
55069;SDS011;40967;52.070;8.596;2023-05-19T15:05:01;1.20;;;0.63;;
55069;SDS011;40967;52.070;8.596;2023-05-19T15:07:27;1.40;;;0.50;;
55069;SDS011;40967;52.070;8.596;2023-05-19T15:09:52;0.97;;;0.40;;
55069;SDS011;40967;52.070;8.596;2023-05-19T15:12:18;0.97;;;0.53;;
55069;SDS011;40967;52.070;8.596;2023-05-19T15:14:43;1.52;;;0.60;;
55069;SDS011;40967;52.070;8.596;2023-05-19T15:17:09;1.55;;;0.70;;
55069;SDS011;40967;52.070;8.596;2023-05-19T15:19:34;1.33;;;0.70;;